Jacksonville, FL (32207)

6:08 AM EDT on April 26, 2015 (GMT -0400)
San Marco | | Change Station
CLOSE
Current Station
Personal Weather Station
Location: Jacksonville, FL
Elevation: 39 ft
Nearby Weather Stations

Elev 39 ft 30.29 °N, 81.64 °W | Updated 14 minutes ago

Partly Cloudy
Partly Cloudy
73.2 °F
Feels Like 73.2 °F
N
2.7
Wind Variable Wind from SSW

Today
High -- | Low -- °F
--% Chance of Precip.
Yesterday
High -- | Low -- °F
Precip. -- in
6:48 AM 8:00 PM
First Quarter, 54% visible
Pressure 29.71 in
Visibility 9.0 miles
Clouds Mostly Cloudy 1100 ft
Dew Point 73 °F
Humidity 99%
Rainfall 0.00 in
Snow Depth Not available.
UV 0 out of 12
Pollen 7.20 out of 12
Air Quality Not available.
Flu Activity Local Activity
METAR KNIP 260953Z 25012KT 9SM BKN011 25/22 A2972 RMK AO2 SLP060 T02500217

More Conditions Fewer Conditions

Pressure 29.71 in
Visibility 9.0 miles
Clouds Mostly Cloudy 1100 ft
Dew Point 73 °F
Humidity 99%
Rainfall 0.00 in
Snow Depth Not available.
UV 0 out of 12
Pollen 7.20 out of 12
Air Quality Not available.
Flu Activity Local Activity
METAR KNIP 260953Z 25012KT 9SM BKN011 25/22 A2972 RMK AO2 SLP060 T02500217

More Conditions Fewer Conditions

The full scope of the disaster following a powerful 7.8-magnitude earthquake in Nepal may not come into view for days, but global charities are already sending emergency aid. Click to see how you can help.

10-Day Weather Forecast

Almanac

Astronomy

Apr. 26, 2015 Rise Set
Actual Time
Civil Twilight
Nautical Twilight
Astronomical Twilight
Moon
Length of Visible Light
Length of Day
Tomorrow will be .
, % of the Moon is Illuminated

Today's Extremes

State Highs State Lows

Community

WunderPhotos

Upload Photos

1,816,959 photos uploaded!

WunderBlogs® & News

Nearby

Air Quality

  Air Quality AQ Index Pollutant
Not available.

Snow Depth

Station Depth Elevation

Earthquake Activity

City Distance Mag. Time & Date
Minimum magnitude displayed is 2.5.

Coastal Water Temperatures

Place Temperature

Stations

Nearby Weather Stations

Station Location Temp. Windchill Dew Point Humidity Wind Precip. Elev Updated Type